sensor_id;sensor_type;location;lat;lon;timestamp;temperature;humidity
9939;DHT22;5008;50.656;7.188;2022-12-31T05:02:03;15.50;99.90
9939;DHT22;5008;50.656;7.188;2022-12-31T05:04:30;15.50;99.90
9939;DHT22;5008;50.656;7.188;2022-12-31T05:06:56;15.30;99.90
9939;DHT22;5008;50.656;7.188;2022-12-31T05:09:23;15.30;99.90
9939;DHT22;5008;50.656;7.188;2022-12-31T05:11:52;15.50;99.90
9939;DHT22;5008;50.656;7.188;2022-12-31T05:14:19;15.40;99.90
9939;DHT22;5008;50.656;7.188;2022-12-31T05:16:45;15.50;99.90
9939;DHT22;5008;50.656;7.188;2022-12-31T05:19:13;15.30;99.90
9939;DHT22;5008;50.656;7.188;2022-12-31T05:21:40;15.30;99.90
9939;DHT22;5008;50.656;7.188;2022-12-31T05:24:07;15.30;99.90
9939;DHT22;5008;50.656;7.188;2022-12-31T05:26:34;15.20;99.90
9939;DHT22;5008;50.656;7.188;2022-12-31T05:29:01;15.40;99.90
9939;DHT22;5008;50.656;7.188;2022-12-31T05:31:28;15.50;99.90
9939;DHT22;5008;50.656;7.188;2022-12-31T05:33:54;15.50;99.90
9939;DHT22;5008;50.656;7.188;2022-12-31T05:36:23;15.50;99.90
9939;DHT22;5008;50.656;7.188;2022-12-31T05:38:49;15.50;99.90
9939;DHT22;5008;50.656;7.188;2022-12-31T05:41:16;15.50;99.90
9939;DHT22;5008;50.656;7.188;2022-12-31T05:43:43;15.30;99.90
9939;DHT22;5008;50.656;7.188;2022-12-31T05:46:10;15.40;99.90
9939;DHT22;5008;50.656;7.188;2022-12-31T05:48:36;15.50;99.90
9939;DHT22;5008;50.656;7.188;2022-12-31T05:51:03;15.40;99.90
9939;DHT22;5008;50.656;7.188;2022-12-31T05:53:32;15.40;99.90
9939;DHT22;5008;50.656;7.188;2022-12-31T05:55:58;15.30;99.90
9939;DHT22;5008;50.656;7.188;2022-12-31T05:58:25;15.20;99.90
9939;DHT22;5008;50.656;7.188;2022-12-31T06:00:52;15.10;99.90
9939;DHT22;5008;50.656;7.188;2022-12-31T06:03:19;15.10;99.90
9939;DHT22;5008;50.656;7.188;2022-12-31T06:06:04;15.10;99.90
9939;DHT22;5008;50.656;7.188;2022-12-31T06:08:33;15.10;99.90
9939;DHT22;5008;50.656;7.188;2022-12-31T06:11:00;15.20;99.90
9939;DHT22;5008;50.656;7.188;2022-12-31T06:13:27;15.20;99.90
9939;DHT22;5008;50.656;7.188;2022-12-31T06:15:54;15.30;99.90
9939;DHT22;5008;50.656;7.188;2022-12-31T06:18:20;15.30;99.90
9939;DHT22;5008;50.656;7.188;2022-12-31T06:20:47;15.50;99.90
9939;DHT22;5008;50.656;7.188;2022-12-31T06:23:14;15.50;99.90
9939;DHT22;5008;50.656;7.188;2022-12-31T06:25:42;15.40;99.90
9939;DHT22;5008;50.656;7.188;2022-12-31T06:28:09;15.30;99.90
9939;DHT22;5008;50.656;7.188;2022-12-31T06:30:36;15.30;99.90
9939;DHT22;5008;50.656;7.188;2022-12-31T06:33:03;15.30;99.90
9939;DHT22;5008;50.656;7.188;2022-12-31T06:35:30;15.30;99.90
9939;DHT22;5008;50.656;7.188;2022-12-31T06:37:56;15.50;99.90
9939;DHT22;5008;50.656;7.188;2022-12-31T06:40:29;15.70;99.90
9939;DHT22;5008;50.656;7.188;2022-12-31T06:42:57;15.70;99.90
9939;DHT22;5008;50.656;7.188;2022-12-31T06:45:24;15.50;99.90
9939;DHT22;5008;50.656;7.188;2022-12-31T06:47:51;15.60;99.90
9939;DHT22;5008;50.656;7.188;2022-12-31T06:50:17;15.60;99.90
9939;DHT22;5008;50.656;7.188;2022-12-31T06:52:44;15.80;99.90
9939;DHT22;5008;50.656;7.188;2022-12-31T06:55:12;15.80;99.90
9939;DHT22;5008;50.656;7.188;2022-12-31T06:57:40;16.10;99.90
9939;DHT22;5008;50.656;7.188;2022-12-31T07:00:14;16.10;99.90
9939;DHT22;5008;50.656;7.188;2022-12-31T07:03:04;16.10;99.90
9939;DHT22;5008;50.656;7.188;2022-12-31T07:05:42;16.10;99.90
9939;DHT22;5008;50.656;7.188;2022-12-31T07:08:19;15.90;99.90
9939;DHT22;5008;50.656;7.188;2022-12-31T07:10:52;15.80;99.90
9939;DHT22;5008;50.656;7.188;2022-12-31T07:13:56;15.70;99.90
9939;DHT22;5008;50.656;7.188;2022-12-31T07:16:33;15.70;99.90
9939;DHT22;5008;50.656;7.188;2022-12-31T07:19:10;15.50;99.90
9939;DHT22;5008;50.656;7.188;2022-12-31T07:21:40;15.50;99.90
9939;DHT22;5008;50.656;7.188;2022-12-31T07:24:08;15.60;99.90
9939;DHT22;5008;50.656;7.188;2022-12-31T07:26:47;15.50;99.90
9939;DHT22;5008;50.656;7.188;2022-12-31T07:29:23;15.60;99.90
9939;DHT22;5008;50.656;7.188;2022-12-31T07:32:00;15.70;99.90
9939;DHT22;5008;50.656;7.188;2022-12-31T07:34:36;15.80;99.90
9939;DHT22;5008;50.656;7.188;2022-12-31T07:37:08;15.80;99.90
9939;DHT22;5008;50.656;7.188;2022-12-31T07:40:16;15.90;99.90
9939;DHT22;5008;50.656;7.188;2022-12-31T07:42:56;16.00;99.90
9939;DHT22;5008;50.656;7.188;2022-12-31T07:45:32;15.90;99.90
9939;DHT22;5008;50.656;7.188;2022-12-31T07:48:01;16.10;99.90
9939;DHT22;5008;50.656;7.188;2022-12-31T07:50:29;16.10;99.90
9939;DHT22;5008;50.656;7.188;2022-12-31T07:52:56;16.20;99.90
9939;DHT22;5008;50.656;7.188;2022-12-31T07:55:23;16.10;99.90
9939;DHT22;5008;50.656;7.188;2022-12-31T07:57:54;16.10;99.90
9939;DHT22;5008;50.656;7.188;2022-12-31T08:00:23;16.00;99.90
9939;DHT22;5008;50.656;7.188;2022-12-31T08:03:15;16.10;99.90
9939;DHT22;5008;50.656;7.188;2022-12-31T08:05:49;16.00;99.90
9939;DHT22;5008;50.656;7.188;2022-12-31T08:08:27;16.00;99.90
9939;DHT22;5008;50.656;7.188;2022-12-31T08:11:05;16.10;99.90
9939;DHT22;5008;50.656;7.188;2022-12-31T08:13:41;16.10;99.90
9939;DHT22;5008;50.656;7.188;2022-12-31T08:16:10;16.00;99.90
9939;DHT22;5008;50.656;7.188;2022-12-31T08:18:39;16.00;99.90
9939;DHT22;5008;50.656;7.188;2022-12-31T08:21:15;16.30;99.90
9939;DHT22;5008;50.656;7.188;2022-12-31T08:23:52;16.40;99.90
9939;DHT22;5008;50.656;7.188;2022-12-31T08:26:27;16.40;99.90
9939;DHT22;5008;50.656;7.188;2022-12-31T08:29:07;16.40;99.90
9939;DHT22;5008;50.656;7.188;2022-12-31T08:31:44;16.30;99.90
9939;DHT22;5008;50.656;7.188;2022-12-31T08:34:21;16.30;99.90
9939;DHT22;5008;50.656;7.188;2022-12-31T08:36:53;16.40;99.90
9939;DHT22;5008;50.656;7.188;2022-12-31T08:39:30;16.30;99.90
9939;DHT22;5008;50.656;7.188;2022-12-31T08:42:04;16.30;99.90
9939;DHT22;5008;50.656;7.188;2022-12-31T08:44:38;16.30;99.90
9939;DHT22;5008;50.656;7.188;2022-12-31T08:47:12;16.30;99.90
9939;DHT22;5008;50.656;7.188;2022-12-31T08:49:44;16.40;99.90
9939;DHT22;5008;50.656;7.188;2022-12-31T08:52:14;16.50;99.90
9939;DHT22;5008;50.656;7.188;2022-12-31T08:54:42;16.50;99.90
9939;DHT22;5008;50.656;7.188;2022-12-31T08:57:15;16.50;99.90
9939;DHT22;5008;50.656;7.188;2022-12-31T08:59:48;16.40;99.90
9939;DHT22;5008;50.656;7.188;2022-12-31T09:02:38;16.30;99.90
9939;DHT22;5008;50.656;7.188;2022-12-31T09:05:15;16.30;99.90
9939;DHT22;5008;50.656;7.188;2022-12-31T09:07:47;16.40;99.90
9939;DHT22;5008;50.656;7.188;2022-12-31T09:10:21;16.50;99.90
9939;DHT22;5008;50.656;7.188;2022-12-31T09:12:55;16.50;99.90
9939;DHT22;5008;50.656;7.188;2022-12-31T09:15:29;16.60;99.90
9939;DHT22;5008;50.656;7.188;2022-12-31T09:17:59;16.70;99.90
9939;DHT22;5008;50.656;7.188;2022-12-31T09:20:29;16.70;99.90
9939;DHT22;5008;50.656;7.188;2022-12-31T09:22:57;16.70;99.90
9939;DHT22;5008;50.656;7.188;2022-12-31T09:25:25;16.60;99.90
9939;DHT22;5008;50.656;7.188;2022-12-31T09:28:09;16.60;99.90
9939;DHT22;5008;50.656;7.188;2022-12-31T09:30:41;16.50;99.90
9939;DHT22;5008;50.656;7.188;2022-12-31T09:33:14;16.60;99.90
9939;DHT22;5008;50.656;7.188;2022-12-31T09:35:48;16.60;99.90
9939;DHT22;5008;50.656;7.188;2022-12-31T09:38:23;16.80;99.90
9939;DHT22;5008;50.656;7.188;2022-12-31T09:41:11;16.70;99.90
9939;DHT22;5008;50.656;7.188;2022-12-31T09:44:03;16.60;99.90
9939;DHT22;5008;50.656;7.188;2022-12-31T09:46:59;16.90;99.90
9939;DHT22;5008;50.656;7.188;2022-12-31T09:49:57;17.10;99.90
9939;DHT22;5008;50.656;7.188;2022-12-31T09:55:44;17.10;99.90
9939;DHT22;5008;50.656;7.188;2022-12-31T09:58:27;17.00;99.90
9939;DHT22;5008;50.656;7.188;2022-12-31T10:01:02;17.00;99.90
9939;DHT22;5008;50.656;7.188;2022-12-31T10:03:46;17.10;99.90
9939;DHT22;5008;50.656;7.188;2022-12-31T10:06:23;17.10;99.90
9939;DHT22;5008;50.656;7.188;2022-12-31T10:09:02;17.00;99.90
9939;DHT22;5008;50.656;7.188;2022-12-31T10:11:48;17.00;99.90
9939;DHT22;5008;50.656;7.188;2022-12-31T10:14:29;17.10;99.90
9939;DHT22;5008;50.656;7.188;2022-12-31T10:17:08;17.10;99.90
9939;DHT22;5008;50.656;7.188;2022-12-31T10:19:50;17.10;99.90
9939;DHT22;5008;50.656;7.188;2022-12-31T10:25:47;17.10;99.90
9939;DHT22;5008;50.656;7.188;2022-12-31T10:28:29;17.20;99.90
9939;DHT22;5008;50.656;7.188;2022-12-31T10:31:03;17.10;99.90
9939;DHT22;5008;50.656;7.188;2022-12-31T10:33:42;17.10;99.90
9939;DHT22;5008;50.656;7.188;2022-12-31T10:36:17;17.10;99.90
9939;DHT22;5008;50.656;7.188;2022-12-31T10:38:54;17.20;99.90
9939;DHT22;5008;50.656;7.188;2022-12-31T10:41:55;17.30;99.90
9939;DHT22;5008;50.656;7.188;2022-12-31T10:48:00;17.30;99.90
9939;DHT22;5008;50.656;7.188;2022-12-31T10:51:07;17.30;99.90
9939;DHT22;5008;50.656;7.188;2022-12-31T10:54:17;17.30;99.90
9939;DHT22;5008;50.656;7.188;2022-12-31T11:00:07;17.20;99.90
9939;DHT22;5008;50.656;7.188;2022-12-31T11:03:23;17.10;99.90
9939;DHT22;5008;50.656;7.188;2022-12-31T11:06:24;17.10;99.90
9939;DHT22;5008;50.656;7.188;2022-12-31T11:12:02;17.00;99.90
9939;DHT22;5008;50.656;7.188;2022-12-31T11:14:51;17.10;99.90
9939;DHT22;5008;50.656;7.188;2022-12-31T11:17:33;17.40;99.90
9939;DHT22;5008;50.656;7.188;2022-12-31T11:20:21;17.40;99.90
9939;DHT22;5008;50.656;7.188;2022-12-31T11:23:03;17.50;99.90
9939;DHT22;5008;50.656;7.188;2022-12-31T11:25:46;17.30;99.90
9939;DHT22;5008;50.656;7.188;2022-12-31T11:28:39;17.20;99.90
9939;DHT22;5008;50.656;7.188;2022-12-31T11:34:40;17.40;99.90
9939;DHT22;5008;50.656;7.188;2022-12-31T11:37:27;17.20;99.90
9939;DHT22;5008;50.656;7.188;2022-12-31T11:40:02;17.30;99.90
9939;DHT22;5008;50.656;7.188;2022-12-31T11:42:40;17.30;99.90
9939;DHT22;5008;50.656;7.188;2022-12-31T11:45:14;17.30;99.90
9939;DHT22;5008;50.656;7.188;2022-12-31T11:47:51;17.40;99.90
9939;DHT22;5008;50.656;7.188;2022-12-31T11:50:34;17.50;99.90
9939;DHT22;5008;50.656;7.188;2022-12-31T11:53:18;17.30;99.90
9939;DHT22;5008;50.656;7.188;2022-12-31T11:55:57;17.30;99.90
9939;DHT22;5008;50.656;7.188;2022-12-31T11:58:26;17.10;99.90
9939;DHT22;5008;50.656;7.188;2022-12-31T12:00:56;17.10;99.90
9939;DHT22;5008;50.656;7.188;2022-12-31T12:03:28;17.20;99.90
9939;DHT22;5008;50.656;7.188;2022-12-31T12:05:57;17.10;99.90
9939;DHT22;5008;50.656;7.188;2022-12-31T12:08:33;17.10;99.90
9939;DHT22;5008;50.656;7.188;2022-12-31T12:11:02;17.10;99.90
9939;DHT22;5008;50.656;7.188;2022-12-31T12:13:31;17.10;99.90
9939;DHT22;5008;50.656;7.188;2022-12-31T12:16:00;17.10;99.90
9939;DHT22;5008;50.656;7.188;2022-12-31T12:18:33;17.10;99.90
9939;DHT22;5008;50.656;7.188;2022-12-31T12:21:09;17.10;99.90
9939;DHT22;5008;50.656;7.188;2022-12-31T12:23:37;17.10;99.90
9939;DHT22;5008;50.656;7.188;2022-12-31T12:26:05;17.30;99.90
9939;DHT22;5008;50.656;7.188;2022-12-31T12:28:42;17.20;99.90
9939;DHT22;5008;50.656;7.188;2022-12-31T12:31:17;17.30;99.90
9939;DHT22;5008;50.656;7.188;2022-12-31T12:33:45;17.50;99.90
9939;DHT22;5008;50.656;7.188;2022-12-31T12:36:16;18.30;99.90
9939;DHT22;5008;50.656;7.188;2022-12-31T12:38:43;18.70;99.90
9939;DHT22;5008;50.656;7.188;2022-12-31T12:41:17;18.60;99.90
9939;DHT22;5008;50.656;7.188;2022-12-31T12:43:45;18.30;99.90
9939;DHT22;5008;50.656;7.188;2022-12-31T12:46:19;18.40;99.90
9939;DHT22;5008;50.656;7.188;2022-12-31T12:48:48;18.60;99.90
9939;DHT22;5008;50.656;7.188;2022-12-31T12:51:32;19.10;99.90
9939;DHT22;5008;50.656;7.188;2022-12-31T12:54:10;19.00;99.90
9939;DHT22;5008;50.656;7.188;2022-12-31T12:56:46;19.00;99.90
9939;DHT22;5008;50.656;7.188;2022-12-31T13:02:32;18.50;99.90
9939;DHT22;5008;50.656;7.188;2022-12-31T13:05:11;18.40;99.90
9939;DHT22;5008;50.656;7.188;2022-12-31T13:07:50;18.50;99.90
9939;DHT22;5008;50.656;7.188;2022-12-31T13:10:48;18.40;99.90
9939;DHT22;5008;50.656;7.188;2022-12-31T13:13:25;18.30;99.90
9939;DHT22;5008;50.656;7.188;2022-12-31T13:15:58;18.40;99.90
9939;DHT22;5008;50.656;7.188;2022-12-31T13:18:39;18.40;99.90
9939;DHT22;5008;50.656;7.188;2022-12-31T13:21:25;18.40;99.90
9939;DHT22;5008;50.656;7.188;2022-12-31T13:24:00;18.30;99.90
9939;DHT22;5008;50.656;7.188;2022-12-31T13:26:34;18.40;99.90
9939;DHT22;5008;50.656;7.188;2022-12-31T13:29:02;18.30;99.90
9939;DHT22;5008;50.656;7.188;2022-12-31T13:31:34;18.40;99.90
9939;DHT22;5008;50.656;7.188;2022-12-31T13:34:05;18.30;99.90
9939;DHT22;5008;50.656;7.188;2022-12-31T13:36:36;18.30;99.90
9939;DHT22;5008;50.656;7.188;2022-12-31T13:39:11;18.20;99.90
9939;DHT22;5008;50.656;7.188;2022-12-31T13:41:42;18.10;99.90
9939;DHT22;5008;50.656;7.188;2022-12-31T13:44:15;18.20;99.90
9939;DHT22;5008;50.656;7.188;2022-12-31T13:46:45;18.20;99.90
9939;DHT22;5008;50.656;7.188;2022-12-31T13:49:17;18.00;99.90
9939;DHT22;5008;50.656;7.188;2022-12-31T13:51:49;17.90;99.90
9939;DHT22;5008;50.656;7.188;2022-12-31T13:54:28;17.90;99.90
9939;DHT22;5008;50.656;7.188;2022-12-31T13:57:01;17.80;99.90
9939;DHT22;5008;50.656;7.188;2022-12-31T13:59:33;17.80;99.90
9939;DHT22;5008;50.656;7.188;2022-12-31T14:02:08;17.70;99.90
9939;DHT22;5008;50.656;7.188;2022-12-31T14:04:46;17.70;99.90
9939;DHT22;5008;50.656;7.188;2022-12-31T14:07:17;17.80;99.90
9939;DHT22;5008;50.656;7.188;2022-12-31T14:09:47;17.80;99.90
9939;DHT22;5008;50.656;7.188;2022-12-31T14:12:33;17.90;99.90
9939;DHT22;5008;50.656;7.188;2022-12-31T14:15:12;17.90;99.90
9939;DHT22;5008;50.656;7.188;2022-12-31T14:17:46;17.90;99.90
9939;DHT22;5008;50.656;7.188;2022-12-31T14:20:20;17.80;99.90
9939;DHT22;5008;50.656;7.188;2022-12-31T14:22:52;17.80;99.90
9939;DHT22;5008;50.656;7.188;2022-12-31T14:25:26;17.70;99.90
9939;DHT22;5008;50.656;7.188;2022-12-31T14:27:55;17.70;99.90
9939;DHT22;5008;50.656;7.188;2022-12-31T14:30:27;17.60;99.90
9939;DHT22;5008;50.656;7.188;2022-12-31T14:33:13;17.60;99.90
9939;DHT22;5008;50.656;7.188;2022-12-31T14:35:53;17.60;99.90
9939;DHT22;5008;50.656;7.188;2022-12-31T14:38:31;17.50;99.90
9939;DHT22;5008;50.656;7.188;2022-12-31T14:41:12;17.40;99.90
9939;DHT22;5008;50.656;7.188;2022-12-31T14:43:52;17.30;99.90
9939;DHT22;5008;50.656;7.188;2022-12-31T14:46:25;17.20;99.90
9939;DHT22;5008;50.656;7.188;2022-12-31T14:49:01;17.10;99.90
9939;DHT22;5008;50.656;7.188;2022-12-31T14:51:34;17.00;99.90
9939;DHT22;5008;50.656;7.188;2022-12-31T14:54:01;17.10;99.90
9939;DHT22;5008;50.656;7.188;2022-12-31T14:56:40;17.00;99.90
9939;DHT22;5008;50.656;7.188;2022-12-31T14:59:24;16.80;99.90
9939;DHT22;5008;50.656;7.188;2022-12-31T15:01:51;16.70;99.90
9939;DHT22;5008;50.656;7.188;2022-12-31T15:04:30;16.60;99.90
9939;DHT22;5008;50.656;7.188;2022-12-31T15:07:00;16.60;99.90
9939;DHT22;5008;50.656;7.188;2022-12-31T15:09:49;16.60;99.90
9939;DHT22;5008;50.656;7.188;2022-12-31T15:12:49;16.60;99.90
9939;DHT22;5008;50.656;7.188;2022-12-31T15:15:28;16.60;99.90
9939;DHT22;5008;50.656;7.188;2022-12-31T15:18:10;16.50;99.90
9939;DHT22;5008;50.656;7.188;2022-12-31T15:20:56;16.30;99.90
9939;DHT22;5008;50.656;7.188;2022-12-31T15:23:31;16.20;99.90
9939;DHT22;5008;50.656;7.188;2022-12-31T15:26:00;16.10;99.90
9939;DHT22;5008;50.656;7.188;2022-12-31T15:28:32;16.10;99.90
9939;DHT22;5008;50.656;7.188;2022-12-31T15:31:03;16.00;99.90
9939;DHT22;5008;50.656;7.188;2022-12-31T15:33:33;15.90;99.90
9939;DHT22;5008;50.656;7.188;2022-12-31T15:36:14;15.90;99.90
9939;DHT22;5008;50.656;7.188;2022-12-31T15:38:42;15.90;99.90
9939;DHT22;5008;50.656;7.188;2022-12-31T15:41:15;15.80;99.90
9939;DHT22;5008;50.656;7.188;2022-12-31T15:43:46;15.80;99.90
9939;DHT22;5008;50.656;7.188;2022-12-31T15:46:17;15.80;99.90
9939;DHT22;5008;50.656;7.188;2022-12-31T15:48:46;15.80;99.90
9939;DHT22;5008;50.656;7.188;2022-12-31T15:51:16;15.80;99.90
9939;DHT22;5008;50.656;7.188;2022-12-31T15:53:46;15.70;99.90
9939;DHT22;5008;50.656;7.188;2022-12-31T15:56:20;15.80;99.90
9939;DHT22;5008;50.656;7.188;2022-12-31T15:58:54;15.70;99.90
9939;DHT22;5008;50.656;7.188;2022-12-31T16:01:23;15.60;99.90
9939;DHT22;5008;50.656;7.188;2022-12-31T16:03:55;15.50;99.90
9939;DHT22;5008;50.656;7.188;2022-12-31T16:06:25;15.60;99.90
9939;DHT22;5008;50.656;7.188;2022-12-31T16:08:53;15.40;99.90
9939;DHT22;5008;50.656;7.188;2022-12-31T16:11:20;15.40;99.90
9939;DHT22;5008;50.656;7.188;2022-12-31T16:13:51;15.20;99.90
9939;DHT22;5008;50.656;7.188;2022-12-31T16:16:21;15.10;99.90
9939;DHT22;5008;50.656;7.188;2022-12-31T16:18:48;15.10;99.90
9939;DHT22;5008;50.656;7.188;2022-12-31T16:21:24;15.00;99.90
9939;DHT22;5008;50.656;7.188;2022-12-31T16:23:52;15.00;99.90
9939;DHT22;5008;50.656;7.188;2022-12-31T16:26:22;14.90;99.90
9939;DHT22;5008;50.656;7.188;2022-12-31T16:28:51;14.90;99.90
9939;DHT22;5008;50.656;7.188;2022-12-31T16:31:19;14.90;99.90
9939;DHT22;5008;50.656;7.188;2022-12-31T16:33:46;15.00;99.90
9939;DHT22;5008;50.656;7.188;2022-12-31T16:36:18;15.00;99.90
9939;DHT22;5008;50.656;7.188;2022-12-31T16:38:46;15.00;99.90
9939;DHT22;5008;50.656;7.188;2022-12-31T16:41:17;15.00;99.90
9939;DHT22;5008;50.656;7.188;2022-12-31T16:43:45;15.20;99.90
9939;DHT22;5008;50.656;7.188;2022-12-31T16:46:16;15.10;99.90
9939;DHT22;5008;50.656;7.188;2022-12-31T16:48:46;15.00;99.90
9939;DHT22;5008;50.656;7.188;2022-12-31T16:51:17;15.10;99.90
9939;DHT22;5008;50.656;7.188;2022-12-31T16:53:45;15.00;99.90
9939;DHT22;5008;50.656;7.188;2022-12-31T16:56:20;15.10;99.90
9939;DHT22;5008;50.656;7.188;2022-12-31T16:58:48;15.00;99.90
9939;DHT22;5008;50.656;7.188;2022-12-31T17:01:20;15.00;99.90
9939;DHT22;5008;50.656;7.188;2022-12-31T17:03:51;14.90;99.90
9939;DHT22;5008;50.656;7.188;2022-12-31T17:06:20;14.90;99.90
9939;DHT22;5008;50.656;7.188;2022-12-31T17:08:49;14.90;99.90
9939;DHT22;5008;50.656;7.188;2022-12-31T17:11:31;14.80;99.90
9939;DHT22;5008;50.656;7.188;2022-12-31T17:14:06;14.80;99.90
9939;DHT22;5008;50.656;7.188;2022-12-31T17:16:36;14.80;99.90
9939;DHT22;5008;50.656;7.188;2022-12-31T17:19:04;14.70;99.90
9939;DHT22;5008;50.656;7.188;2022-12-31T17:21:31;14.70;99.90
9939;DHT22;5008;50.656;7.188;2022-12-31T17:24:01;14.90;99.90
9939;DHT22;5008;50.656;7.188;2022-12-31T17:26:30;14.80;99.90
9939;DHT22;5008;50.656;7.188;2022-12-31T17:28:59;14.80;99.90
9939;DHT22;5008;50.656;7.188;2022-12-31T17:31:30;14.70;99.90
9939;DHT22;5008;50.656;7.188;2022-12-31T17:34:23;14.70;99.90
9939;DHT22;5008;50.656;7.188;2022-12-31T17:36:58;14.60;99.90
9939;DHT22;5008;50.656;7.188;2022-12-31T17:39:29;14.70;99.90
9939;DHT22;5008;50.656;7.188;2022-12-31T17:42:04;14.60;99.90
9939;DHT22;5008;50.656;7.188;2022-12-31T17:44:32;14.70;99.90
9939;DHT22;5008;50.656;7.188;2022-12-31T17:47:01;14.70;99.90
9939;DHT22;5008;50.656;7.188;2022-12-31T17:49:30;14.60;99.90
9939;DHT22;5008;50.656;7.188;2022-12-31T17:51:57;14.60;99.90
9939;DHT22;5008;50.656;7.188;2022-12-31T17:54:24;14.50;99.90
9939;DHT22;5008;50.656;7.188;2022-12-31T17:56:51;14.60;99.90
9939;DHT22;5008;50.656;7.188;2022-12-31T17:59:21;14.50;99.90
9939;DHT22;5008;50.656;7.188;2022-12-31T18:01:49;14.50;99.90
9939;DHT22;5008;50.656;7.188;2022-12-31T18:04:17;14.50;99.90
9939;DHT22;5008;50.656;7.188;2022-12-31T18:06:46;14.50;99.90
9939;DHT22;5008;50.656;7.188;2022-12-31T18:09:13;14.50;99.90
9939;DHT22;5008;50.656;7.188;2022-12-31T18:11:41;14.40;99.90
9939;DHT22;5008;50.656;7.188;2022-12-31T18:14:09;14.40;99.90
9939;DHT22;5008;50.656;7.188;2022-12-31T18:16:36;14.40;99.90
9939;DHT22;5008;50.656;7.188;2022-12-31T18:19:09;14.40;99.90
9939;DHT22;5008;50.656;7.188;2022-12-31T18:21:37;14.40;99.90
9939;DHT22;5008;50.656;7.188;2022-12-31T18:24:11;14.40;99.90
9939;DHT22;5008;50.656;7.188;2022-12-31T18:26:39;14.40;99.90
9939;DHT22;5008;50.656;7.188;2022-12-31T18:29:13;14.50;99.90
9939;DHT22;5008;50.656;7.188;2022-12-31T18:31:43;14.50;99.90
9939;DHT22;5008;50.656;7.188;2022-12-31T18:34:12;14.50;99.90
9939;DHT22;5008;50.656;7.188;2022-12-31T18:36:39;14.40;99.90
9939;DHT22;5008;50.656;7.188;2022-12-31T18:39:07;14.50;99.90
9939;DHT22;5008;50.656;7.188;2022-12-31T18:41:38;14.40;99.90
9939;DHT22;5008;50.656;7.188;2022-12-31T18:44:08;14.40;99.90
9939;DHT22;5008;50.656;7.188;2022-12-31T18:46:35;14.40;99.90
9939;DHT22;5008;50.656;7.188;2022-12-31T18:49:02;14.40;99.90
9939;DHT22;5008;50.656;7.188;2022-12-31T18:51:29;14.40;99.90
9939;DHT22;5008;50.656;7.188;2022-12-31T18:53:56;14.50;99.90
9939;DHT22;5008;50.656;7.188;2022-12-31T18:56:24;14.50;99.90
9939;DHT22;5008;50.656;7.188;2022-12-31T18:58:51;14.50;99.90
9939;DHT22;5008;50.656;7.188;2022-12-31T19:01:25;14.40;99.90
9939;DHT22;5008;50.656;7.188;2022-12-31T19:03:54;14.40;99.90
9939;DHT22;5008;50.656;7.188;2022-12-31T19:06:21;14.40;99.90
9939;DHT22;5008;50.656;7.188;2022-12-31T19:08:48;14.40;99.90
9939;DHT22;5008;50.656;7.188;2022-12-31T19:11:15;14.40;99.90
9939;DHT22;5008;50.656;7.188;2022-12-31T19:13:44;14.40;99.90
9939;DHT22;5008;50.656;7.188;2022-12-31T19:16:12;14.40;99.90
9939;DHT22;5008;50.656;7.188;2022-12-31T19:18:39;14.40;99.90
9939;DHT22;5008;50.656;7.188;2022-12-31T19:21:13;14.40;99.90
9939;DHT22;5008;50.656;7.188;2022-12-31T19:23:41;14.40;99.90
9939;DHT22;5008;50.656;7.188;2022-12-31T19:26:12;14.40;99.90
9939;DHT22;5008;50.656;7.188;2022-12-31T19:28:41;14.30;99.90
9939;DHT22;5008;50.656;7.188;2022-12-31T19:31:10;14.40;99.90
9939;DHT22;5008;50.656;7.188;2022-12-31T19:33:37;14.40;99.90
9939;DHT22;5008;50.656;7.188;2022-12-31T19:36:05;14.30;99.90
9939;DHT22;5008;50.656;7.188;2022-12-31T19:38:32;14.30;99.90
9939;DHT22;5008;50.656;7.188;2022-12-31T19:41:00;14.40;99.90
9939;DHT22;5008;50.656;7.188;2022-12-31T19:43:27;14.50;99.90
9939;DHT22;5008;50.656;7.188;2022-12-31T19:45:54;14.40;99.90
9939;DHT22;5008;50.656;7.188;2022-12-31T19:48:23;14.30;99.90
9939;DHT22;5008;50.656;7.188;2022-12-31T19:50:52;14.30;99.90
9939;DHT22;5008;50.656;7.188;2022-12-31T19:53:21;14.30;99.90
9939;DHT22;5008;50.656;7.188;2022-12-31T19:55:48;14.40;99.90
9939;DHT22;5008;50.656;7.188;2022-12-31T19:58:18;14.30;99.90
9939;DHT22;5008;50.656;7.188;2022-12-31T20:00:45;14.40;99.90
9939;DHT22;5008;50.656;7.188;2022-12-31T20:03:12;14.50;99.90
9939;DHT22;5008;50.656;7.188;2022-12-31T20:05:40;14.40;99.90
9939;DHT22;5008;50.656;7.188;2022-12-31T20:08:07;14.40;99.90
9939;DHT22;5008;50.656;7.188;2022-12-31T20:10:35;14.40;99.90
9939;DHT22;5008;50.656;7.188;2022-12-31T20:13:02;14.30;99.90
9939;DHT22;5008;50.656;7.188;2022-12-31T20:15:30;14.40;99.90
9939;DHT22;5008;50.656;7.188;2022-12-31T20:17:57;14.30;99.90
9939;DHT22;5008;50.656;7.188;2022-12-31T20:20:24;14.40;99.90
9939;DHT22;5008;50.656;7.188;2022-12-31T20:22:55;14.30;99.90
9939;DHT22;5008;50.656;7.188;2022-12-31T20:25:22;14.30;99.90
9939;DHT22;5008;50.656;7.188;2022-12-31T20:27:51;14.30;99.90
9939;DHT22;5008;50.656;7.188;2022-12-31T20:30:18;14.40;99.90
9939;DHT22;5008;50.656;7.188;2022-12-31T20:32:45;14.30;99.90
9939;DHT22;5008;50.656;7.188;2022-12-31T20:35:12;14.30;99.90
9939;DHT22;5008;50.656;7.188;2022-12-31T20:37:39;14.40;99.90
9939;DHT22;5008;50.656;7.188;2022-12-31T20:40:09;14.40;99.90
9939;DHT22;5008;50.656;7.188;2022-12-31T20:42:36;14.30;99.90
9939;DHT22;5008;50.656;7.188;2022-12-31T20:45:06;14.30;99.90
9939;DHT22;5008;50.656;7.188;2022-12-31T20:47:33;14.40;99.90
9939;DHT22;5008;50.656;7.188;2022-12-31T20:49:59;14.50;99.90
9939;DHT22;5008;50.656;7.188;2022-12-31T20:52:26;14.50;99.90
9939;DHT22;5008;50.656;7.188;2022-12-31T20:54:53;14.40;99.90
9939;DHT22;5008;50.656;7.188;2022-12-31T20:57:21;14.40;99.90
9939;DHT22;5008;50.656;7.188;2022-12-31T20:59:48;14.50;99.90
9939;DHT22;5008;50.656;7.188;2022-12-31T21:02:15;14.50;99.90
9939;DHT22;5008;50.656;7.188;2022-12-31T21:04:42;14.40;99.90
9939;DHT22;5008;50.656;7.188;2022-12-31T21:07:09;14.40;99.90
9939;DHT22;5008;50.656;7.188;2022-12-31T21:09:36;14.20;99.90
9939;DHT22;5008;50.656;7.188;2022-12-31T21:12:03;14.20;99.90
9939;DHT22;5008;50.656;7.188;2022-12-31T21:14:49;14.40;99.90
9939;DHT22;5008;50.656;7.188;2022-12-31T21:17:16;14.40;99.90
9939;DHT22;5008;50.656;7.188;2022-12-31T21:19:43;14.40;99.90
9939;DHT22;5008;50.656;7.188;2022-12-31T21:22:10;14.50;99.90
9939;DHT22;5008;50.656;7.188;2022-12-31T21:24:37;14.60;99.90
9939;DHT22;5008;50.656;7.188;2022-12-31T21:27:03;14.60;99.90
9939;DHT22;5008;50.656;7.188;2022-12-31T21:29:30;14.50;99.90
9939;DHT22;5008;50.656;7.188;2022-12-31T21:31:58;14.60;99.90
9939;DHT22;5008;50.656;7.188;2022-12-31T21:34:25;14.60;99.90
9939;DHT22;5008;50.656;7.188;2022-12-31T21:36:52;14.70;99.90
9939;DHT22;5008;50.656;7.188;2022-12-31T21:39:19;14.70;99.90
9939;DHT22;5008;50.656;7.188;2022-12-31T21:41:45;14.60;99.90
9939;DHT22;5008;50.656;7.188;2022-12-31T21:44:19;14.70;99.90
9939;DHT22;5008;50.656;7.188;2022-12-31T21:46:46;14.70;99.90
9939;DHT22;5008;50.656;7.188;2022-12-31T21:49:14;14.60;99.90
9939;DHT22;5008;50.656;7.188;2022-12-31T21:51:41;14.60;99.90
9939;DHT22;5008;50.656;7.188;2022-12-31T21:54:26;14.60;99.90
9939;DHT22;5008;50.656;7.188;2022-12-31T21:57:10;14.80;99.90
9939;DHT22;5008;50.656;7.188;2022-12-31T21:59:36;15.00;99.90
